Time;durP1;ratioP1;P1;durP2;ratioP2;P2;SDS_P1;SDS_P2;PMS_P1;PMS_P2;Temp;Humidity;BMP_temperature;BMP_pressure;BME280_temperature;BME280_humidity;BME280_pressure;Samples;Min_cycle;Max_cycle;Signal;HPM_P1;HPM_P2
2021/04/01 00:01:12;;;;;;;40.67;20.52;;;10.80;99.90;;;;;;5067035;28;20031;-77
2021/04/01 00:03:42;;;;;;;42.30;20.80;;;10.80;99.90;;;;;;5068029;28;20068;-78
2021/04/01 00:06:08;;;;;;;;;;;10.90;99.90;;;;;;5067183;28;20552;-78
2021/04/01 00:08:34;;;;;;;38.17;19.95;;;10.90;99.90;;;;;;5068111;28;19915;-77
2021/04/01 00:11:00;;;;;;;39.65;20.52;;;10.90;99.90;;;;;;5052852;28;20029;-78
2021/04/01 00:13:26;;;;;;;41.75;19.85;;;10.90;99.90;;;;;;5046901;28;20048;-78
2021/04/01 00:15:53;;;;;;;39.83;19.60;;;10.80;99.90;;;;;;5047948;28;20033;-78
2021/04/01 00:18:20;;;;;;;38.50;19.60;;;10.80;99.90;;;;;;5049019;28;20489;-78
2021/04/01 00:20:47;;;;;;;46.92;22.45;;;10.80;99.90;;;;;;5047894;28;20034;-78
2021/04/01 00:23:13;;;;;;;41.40;21.38;;;10.70;99.90;;;;;;5048843;28;20034;-78
2021/04/01 00:25:39;;;;;;;43.22;21.38;;;10.70;99.90;;;;;;5063061;28;20049;-78
2021/04/01 00:28:05;;;;;;;42.42;20.85;;;10.70;99.90;;;;;;5047889;28;20025;-77
2021/04/01 00:30:31;;;;;;;41.28;20.83;;;10.90;99.90;;;;;;5046645;28;20029;-78
2021/04/01 00:32:56;;;;;;;39.28;20.30;;;10.90;99.90;;;;;;5047379;28;20465;-78
2021/04/01 00:35:22;;;;;;;46.22;22.08;;;10.80;99.90;;;;;;5062924;28;20033;-78
2021/04/01 00:37:48;;;;;;;39.63;20.35;;;10.90;99.90;;;;;;5053281;28;20033;-78
2021/04/01 00:40:14;;;;;;;45.33;22.52;;;10.90;99.90;;;;;;5083085;28;20037;-78
2021/04/01 00:42:40;;;;;;;41.55;21.77;;;10.90;99.90;;;;;;5082890;28;20493;-78
2021/04/01 00:45:09;;;;;;;42.58;22.52;;;11.00;99.90;;;;;;5067462;28;20032;-78
2021/04/01 00:47:46;;;;;;;41.58;21.08;;;11.00;99.90;;;;;;5066047;28;20056;-78
2021/04/01 00:50:19;;;;;;;44.03;22.80;;;11.00;99.90;;;;;;5066107;28;20047;-78
2021/04/01 00:52:45;;;;;;;41.95;21.67;;;10.90;99.90;;;;;;5047423;28;20026;-78
2021/04/01 00:55:11;;;;;;;38.58;20.23;;;10.90;99.90;;;;;;5046019;28;20047;-78
2021/04/01 00:57:40;;;;;;;40.15;19.98;;;10.90;99.90;;;;;;5062630;28;20033;-77
2021/04/01 01:00:09;;;;;;;36.20;19.05;;;11.00;99.90;;;;;;5045822;28;20052;-78
2021/04/01 01:02:35;;;;;;;36.85;18.73;;;11.00;99.90;;;;;;5062507;28;20053;-78
2021/04/01 01:05:01;;;;;;;41.63;21.02;;;11.00;99.90;;;;;;5065442;28;20045;-78
2021/04/01 01:07:27;;;;;;;42.17;20.83;;;11.10;99.90;;;;;;5066511;28;20029;-78
2021/04/01 01:09:52;;;;;;;40.63;20.88;;;11.10;99.90;;;;;;5049125;28;20111;-78
2021/04/01 01:12:18;;;;;;;36.35;19.52;;;11.10;99.90;;;;;;5065639;28;20092;-78
2021/04/01 01:14:43;;;;;;;38.22;19.58;;;11.10;99.90;;;;;;5066837;28;20057;-78
2021/04/01 01:17:09;;;;;;;41.83;21.42;;;11.20;99.90;;;;;;5066969;28;20036;-78
2021/04/01 01:19:40;;;;;;;41.83;20.88;;;11.10;99.90;;;;;;5082227;28;20044;-78
2021/04/01 01:22:06;;;;;;;38.05;20.15;;;11.10;99.90;;;;;;5066795;28;20061;-78
2021/04/01 01:24:33;;;;;;;37.20;20.85;;;11.00;99.90;;;;;;5065333;28;20025;-78
2021/04/01 01:26:59;;;;;;;34.55;17.27;;;11.00;99.90;;;;;;5065707;28;20029;-78
2021/04/01 01:29:25;;;;;;;39.40;18.67;;;11.00;99.90;;;;;;5081854;28;20533;-78
2021/04/01 01:31:51;;;;;;;38.63;18.55;;;11.00;99.90;;;;;;5066702;28;20037;-78
2021/04/01 01:34:17;;;;;;;41.83;20.63;;;11.10;99.90;;;;;;5065519;28;20040;-78
2021/04/01 01:36:43;;;;;;;36.30;19.73;;;11.10;99.90;;;;;;5063387;28;20033;-78
2021/04/01 01:39:08;;;;;;;37.88;18.27;;;11.10;99.90;;;;;;5082041;28;20040;-78
2021/04/01 01:41:34;;;;;;;39.17;20.30;;;11.10;99.90;;;;;;5081785;28;20080;-78
2021/04/01 01:44:01;;;;;;;36.92;19.88;;;11.10;99.90;;;;;;5080726;28;20088;-78
2021/04/01 01:46:27;;;;;;;39.15;19.85;;;10.90;99.90;;;;;;5081535;28;20441;-78
2021/04/01 01:48:59;;;;;;;42.75;21.52;;;10.90;99.90;;;;;;5066366;28;20029;-78
2021/04/01 01:51:28;;;;;;;37.80;20.80;;;10.90;99.90;;;;;;5057068;28;20124;-78
2021/04/01 01:53:54;;;;;;;38.33;19.67;;;11.00;99.90;;;;;;5061637;28;20030;-78
2021/04/01 01:56:25;;;;;;;38.55;19.70;;;11.00;99.90;;;;;;5046149;28;20025;-78
2021/04/01 01:58:55;;;;;;;41.10;20.35;;;11.00;99.90;;;;;;5061758;28;20060;-78
2021/04/01 02:01:23;;;;;;;37.42;19.42;;;11.10;99.90;;;;;;5061662;28;20029;-78
2021/04/01 02:03:49;;;;;;;35.85;18.15;;;11.20;99.90;;;;;;5052495;28;20043;-78
2021/04/01 02:06:17;;;;;;;40.05;19.70;;;11.10;99.90;;;;;;5064443;28;20033;-77
2021/04/01 02:08:43;;;;;;;38.38;20.77;;;11.10;99.90;;;;;;5065923;28;20025;-78
2021/04/01 02:11:09;;;;;;;42.35;22.02;;;11.00;99.90;;;;;;5064658;28;20108;-78
2021/04/01 02:13:35;;;;;;;41.00;19.90;;;10.90;99.90;;;;;;5064552;28;20090;-78
2021/04/01 02:16:01;;;;;;;43.72;20.15;;;10.90;99.90;;;;;;5064508;28;20021;-78
2021/04/01 02:18:28;;;;;;;40.63;19.65;;;10.90;99.90;;;;;;5064568;28;20040;-78
2021/04/01 02:20:56;;;;;;;43.63;21.48;;;11.00;99.90;;;;;;5064319;28;20085;-78
2021/04/01 02:23:24;;;;;;;32.20;17.48;;;10.90;99.90;;;;;;5064280;28;20040;-78
2021/04/01 02:25:51;;;;;;;40.00;19.88;;;10.70;99.90;;;;;;5064317;28;20041;-78
2021/04/01 02:28:19;;;;;;;48.22;24.15;;;10.90;99.90;;;;;;5065890;28;20036;-78
2021/04/01 02:30:47;;;;;;;43.30;23.33;;;11.10;99.90;;;;;;5064166;28;20039;-78
2021/04/01 02:33:14;;;;;;;43.53;21.00;;;11.10;99.90;;;;;;5064854;28;20025;-78
2021/04/01 02:35:40;;;;;;;40.92;20.77;;;10.90;99.90;;;;;;5047260;28;20044;-78
2021/04/01 02:38:06;;;;;;;38.45;19.88;;;10.90;99.90;;;;;;5065570;28;20025;-78
2021/04/01 02:40:33;;;;;;;40.88;19.95;;;10.90;99.90;;;;;;5047445;28;20044;-78
2021/04/01 02:42:58;;;;;;;35.95;18.98;;;10.90;99.90;;;;;;5065507;28;20033;-78
2021/04/01 02:45:24;;;;;;;43.08;21.90;;;11.00;99.90;;;;;;5063506;28;20156;-78
2021/04/01 02:47:50;;;;;;;44.47;21.88;;;11.10;99.90;;;;;;5080639;28;20158;-78
2021/04/01 02:50:17;;;;;;;45.45;22.65;;;11.10;99.90;;;;;;5080840;28;20044;-78
2021/04/01 02:52:43;;;;;;;45.83;23.17;;;11.20;99.90;;;;;;5043989;28;20045;-78
2021/04/01 02:55:11;;;;;;;49.25;22.02;;;11.20;99.90;;;;;;5047062;28;20036;-78
2021/04/01 02:57:37;;;;;;;41.13;21.33;;;11.40;99.90;;;;;;5049542;28;20064;-78
2021/04/01 03:00:10;;;;;;;45.15;20.63;;;11.30;99.90;;;;;;5049460;28;20043;-78
2021/04/01 03:02:37;;;;;;;41.22;20.70;;;11.10;99.90;;;;;;5078489;28;20497;-78
2021/04/01 03:05:09;;;;;;;34.05;17.20;;;11.10;99.90;;;;;;5068974;28;20551;-78
2021/04/01 03:07:35;;;;;;;42.60;21.05;;;11.10;99.90;;;;;;5067914;28;20037;-78
2021/04/01 03:10:01;;;;;;;52.05;23.90;;;11.20;99.90;;;;;;5069270;28;20040;-78
2021/04/01 03:12:27;;;;;;;48.05;22.20;;;11.40;99.90;;;;;;5067692;28;20033;-78
2021/04/01 03:14:53;;;;;;;47.85;23.30;;;11.40;99.90;;;;;;5069130;28;20056;-77
2021/04/01 03:17:18;;;;;;;44.60;21.13;;;11.50;99.90;;;;;;5068872;28;20037;-78
2021/04/01 03:19:44;;;;;;;38.72;20.38;;;11.40;99.90;;;;;;5069026;28;20029;-78
2021/04/01 03:22:09;;;;;;;43.35;21.15;;;11.40;99.90;;;;;;5067585;28;20041;-78
2021/04/01 03:24:35;;;;;;;45.72;21.80;;;11.50;99.90;;;;;;5068775;28;20037;-78
2021/04/01 03:27:01;;;;;;;46.15;20.85;;;11.20;99.90;;;;;;5068861;28;20029;-78
2021/04/01 03:29:27;;;;;;;40.20;20.17;;;11.20;99.90;;;;;;5068978;28;20071;-78
2021/04/01 03:31:52;;;;;;;38.25;18.73;;;11.00;99.90;;;;;;5058954;28;20096;-78
2021/04/01 03:34:18;;;;;;;41.15;20.70;;;10.90;99.90;;;;;;5048896;28;20030;-78
2021/04/01 03:36:47;;;;;;;37.03;18.83;;;10.70;99.90;;;;;;5030646;28;20040;-78
2021/04/01 03:39:13;;;;;;;41.85;20.23;;;10.60;99.90;;;;;;5064178;28;20484;-78
2021/04/01 03:41:39;;;;;;;38.35;19.90;;;10.60;99.90;;;;;;5048543;28;20022;-79
2021/04/01 03:44:04;;;;;;;39.80;18.50;;;10.70;99.90;;;;;;5063883;28;20477;-78
2021/04/01 03:46:30;;;;;;;36.20;18.83;;;10.50;99.90;;;;;;5048205;28;20056;-78
2021/04/01 03:48:56;;;;;;;40.40;19.05;;;10.40;99.90;;;;;;5048588;28;20491;-78
2021/04/01 03:51:21;;;;;;;40.70;18.48;;;10.30;99.90;;;;;;5057192;28;20033;-78
2021/04/01 03:53:47;;;;;;;38.55;19.15;;;10.20;99.90;;;;;;5068278;28;20025;-78
2021/04/01 03:56:12;;;;;;;43.22;19.00;;;10.20;99.90;;;;;;5068304;28;20044;-78
2021/04/01 04:06:49;;;;;;;39.38;18.17;;;9.90;99.90;;;;;;5047283;28;20101;-78
2021/04/01 04:11:45;;;;;;;40.17;18.52;;;9.90;99.90;;;;;;5048140;28;20087;-77
2021/04/01 04:14:17;;;;;;;38.83;18.55;;;9.80;99.90;;;;;;5048277;28;20059;-78
2021/04/01 04:16:43;;;;;;;39.72;18.25;;;9.60;99.90;;;;;;5048274;28;20123;-79
2021/04/01 04:19:09;;;;;;;40.10;18.33;;;9.60;99.90;;;;;;5063399;28;20013;-79
2021/04/01 04:21:34;;;;;;;39.58;17.80;;;9.60;99.90;;;;;;5055431;28;20052;-79
2021/04/01 04:24:02;;;;;;;40.00;17.92;;;9.40;99.90;;;;;;5067737;28;20055;-79
2021/04/01 04:26:28;;;;;;;40.92;19.95;;;9.50;99.90;;;;;;5066504;28;20495;-79
2021/04/01 04:28:53;;;;;;;38.92;17.90;;;9.30;99.90;;;;;;5065725;28;20025;-79
2021/04/01 04:31:19;;;;;;;37.80;18.63;;;9.30;99.90;;;;;;5067676;28;20033;-79
2021/04/01 04:33:45;;;;;;;43.20;19.52;;;9.30;99.90;;;;;;5067529;28;20029;-79
2021/04/01 04:36:11;;;;;;;44.17;18.67;;;9.30;99.90;;;;;;5049762;28;20036;-79
2021/04/01 04:38:36;;;;;;;38.53;18.67;;;9.20;99.90;;;;;;5067517;28;20032;-79
2021/04/01 04:41:03;;;;;;;36.67;17.90;;;9.10;99.90;;;;;;5082786;28;20033;-79
2021/04/01 04:43:30;;;;;;;39.67;18.60;;;9.10;99.90;;;;;;5049602;28;20031;-79
2021/04/01 04:45:57;;;;;;;38.05;17.92;;;9.10;99.90;;;;;;5066202;28;20041;-79
2021/04/01 04:48:23;;;;;;;39.72;19.17;;;9.00;99.90;;;;;;5082824;28;20052;-78
2021/04/01 04:50:49;;;;;;;40.70;19.08;;;8.90;99.90;;;;;;5063178;28;20025;-79
2021/04/01 04:53:15;;;;;;;37.28;17.13;;;9.00;99.90;;;;;;5062674;28;20033;-79
2021/04/01 04:55:46;;;;;;;36.78;17.98;;;9.00;99.90;;;;;;5046328;28;20040;-78
2021/04/01 05:09:03;;;;;;;38.00;17.60;;;9.00;99.90;;;;;;5053565;28;20092;-79
2021/04/01 05:11:32;;;;;;;41.60;18.85;;;8.90;99.90;;;;;;5066927;28;20029;-78
2021/04/01 05:13:58;;;;;;;47.40;20.98;;;8.90;99.90;;;;;;5049027;28;20028;-79
2021/04/01 05:16:24;;;;;;;38.30;17.80;;;8.80;99.90;;;;;;5049163;28;20036;-79
2021/04/01 05:18:49;;;;;;;50.72;19.27;;;8.70;99.90;;;;;;5047683;28;20033;-78
2021/04/01 05:21:17;;;;;;;42.10;17.98;;;8.90;99.90;;;;;;5066073;28;20479;-79
2021/04/01 05:23:45;;;;;;;39.70;18.40;;;8.80;99.90;;;;;;5068863;28;20056;-78
2021/04/01 05:28:41;;;;;;;39.58;17.98;;;8.70;99.90;;;;;;5066186;28;20029;-79
2021/04/01 05:31:09;;;;;;;44.97;19.40;;;8.60;99.90;;;;;;5048138;28;20107;-78
2021/04/01 05:33:36;;;;;;;44.17;20.13;;;8.60;99.90;;;;;;5065806;28;20025;-79
2021/04/01 05:36:07;;;;;;;43.72;18.10;;;8.60;99.90;;;;;;5047861;28;20033;-79
2021/04/01 05:38:34;;;;;;;42.63;17.67;;;8.60;99.90;;;;;;5047849;28;20033;-79
2021/04/01 05:41:01;;;;;;;44.13;17.58;;;8.70;99.90;;;;;;5047861;28;20025;-79
2021/04/01 05:43:29;;;;;;;42.78;17.95;;;8.70;99.90;;;;;;5047692;28;20542;-79
2021/04/01 05:46:10;;;;;;;40.55;18.13;;;8.70;99.90;;;;;;5047778;28;20049;-79
2021/04/01 05:56:50;;;;;;;42.33;17.95;;;8.80;99.90;;;;;;5066634;28;20043;-79
2021/04/01 05:59:27;;;;;;;39.97;17.27;;;8.80;99.90;;;;;;5067327;28;20047;-79
2021/04/01 06:04:35;;;;;;;54.95;22.90;;;9.00;99.90;;;;;;5066696;28;20192;-78
2021/04/01 06:07:13;;;;;;;49.95;21.98;;;9.50;99.90;;;;;;5067367;28;20067;-78
2021/04/01 06:09:46;;;;;;;51.05;21.60;;;9.60;99.90;;;;;;5067263;28;20028;-79
2021/04/01 06:12:12;;;;;;;47.47;20.50;;;9.60;99.90;;;;;;5050585;28;20468;-79
2021/04/01 06:14:55;;;;;;;51.20;21.58;;;9.80;99.90;;;;;;5067150;28;20142;-78
2021/04/01 06:17:24;;;;;;;53.83;24.10;;;10.00;99.90;;;;;;5067159;28;20040;-80
2021/04/01 06:19:54;;;;;;;51.28;21.73;;;10.20;99.90;;;;;;5067092;28;20131;-78
2021/04/01 06:22:24;;;;;;;54.35;22.35;;;10.40;99.90;;;;;;5050472;28;20107;-79
2021/04/01 06:24:51;;;;;;;46.05;19.55;;;10.40;99.90;;;;;;5066964;28;20063;-78
2021/04/01 06:27:34;;;;;;;51.00;21.50;;;10.50;99.90;;;;;;5067127;28;20063;-78
2021/04/01 06:30:20;;;;;;;46.63;19.20;;;10.70;99.90;;;;;;5084723;28;20029;-78
2021/04/01 06:33:02;;;;;;;58.60;23.67;;;10.90;99.90;;;;;;5050258;28;20036;-79
2021/04/01 06:35:38;;;;;;;57.55;24.58;;;11.10;99.90;;;;;;5050574;28;20214;-78
2021/04/01 06:40:58;;;;;;;62.17;27.52;;;11.20;99.90;;;;;;5066984;28;20037;-79
2021/04/01 06:43:49;;;;;;;60.05;24.20;;;11.40;99.90;;;;;;5051252;28;20025;-79
2021/04/01 06:46:19;;;;;;;57.72;23.52;;;11.50;99.90;;;;;;5066837;28;20040;-78
2021/04/01 06:51:22;;;;;;;60.95;26.05;;;11.80;99.90;;;;;;5066829;28;20044;-79
2021/04/01 06:59:51;;;;;;;78.82;31.15;;;12.10;99.90;;;;;;5083392;28;20054;-78
2021/04/01 07:04:47;;;;;;;67.78;28.60;;;12.30;99.90;;;;;;5074831;28;20434;-79
2021/04/01 07:07:17;;;;;;;54.55;24.45;;;12.40;99.90;;;;;;5042811;28;20033;-79
2021/04/01 07:12:44;;;;;;;62.42;27.00;;;12.60;99.90;;;;;;5064645;28;20059;-79
2021/04/01 07:15:16;;;;;;;64.30;27.33;;;12.60;99.90;;;;;;5046667;28;20025;-78
2021/04/01 07:17:48;;;;;;;79.35;32.28;;;12.70;99.90;;;;;;5046862;28;20049;-79
2021/04/01 07:20:46;;;;;;;77.75;33.25;;;12.70;99.90;;;;;;5046575;28;20041;-78
2021/04/01 07:30:50;;;;;;;86.43;34.20;;;12.80;99.90;;;;;;5064369;28;20043;-79
2021/04/01 07:48:13;;;;;;;121.05;53.25;;;13.00;99.90;;;;;;5050078;28;20083;-80
2021/04/01 07:50:42;;;;;;;111.15;46.83;;;13.00;99.90;;;;;;5033441;28;20036;-79
2021/04/01 07:53:11;;;;;;;118.18;52.08;;;13.10;99.90;;;;;;5033413;28;20298;-79
2021/04/01 07:56:16;;;;;;;120.20;55.28;;;13.00;99.90;;;;;;5033448;28;20040;-78
2021/04/01 08:04:04;;;;;;;127.18;57.58;;;13.00;99.90;;;;;;5049864;28;20075;-78
2021/04/01 08:06:30;;;;;;;121.68;58.53;;;12.90;99.90;;;;;;5032961;28;20051;-79
2021/04/01 08:09:06;;;;;;;133.07;58.67;;;13.00;99.90;;;;;;5033081;28;20089;-79
2021/04/01 08:11:38;;;;;;;130.55;62.50;;;12.80;99.90;;;;;;5049528;28;20047;-79
2021/04/01 08:14:10;;;;;;;143.27;60.80;;;12.70;99.90;;;;;;5049606;28;20060;-79
2021/04/01 08:16:45;;;;;;;134.02;63.03;;;12.80;99.90;;;;;;5049637;28;20053;-78
2021/04/01 08:19:14;;;;;;;124.65;58.85;;;12.70;99.90;;;;;;5049462;28;20057;-79
2021/04/01 08:21:42;;;;;;;130.55;59.67;;;12.90;99.90;;;;;;5032510;28;20037;-79
2021/04/01 08:24:14;;;;;;;134.80;63.00;;;12.90;99.90;;;;;;5049149;28;20029;-78
2021/04/01 08:27:13;;;;;;;134.45;62.78;;;12.80;99.90;;;;;;5067062;28;20547;-78
2021/04/01 08:32:32;;;;;;;113.93;54.05;;;13.00;99.90;;;;;;5048891;28;20033;-79
2021/04/01 08:35:01;;;;;;;135.95;65.80;;;13.30;99.90;;;;;;5066949;28;20037;-79
2021/04/01 08:37:32;;;;;;;139.48;64.43;;;13.10;99.90;;;;;;5048826;28;20511;-79
2021/04/01 08:40:02;;;;;;;127.75;60.33;;;13.00;99.90;;;;;;5032349;28;20092;-79
2021/04/01 08:42:44;;;;;;;;;;;13.10;99.90;;;;;;5032690;28;20025;-79
2021/04/01 08:45:53;;;;;;;135.60;62.80;;;13.20;99.90;;;;;;5048807;28;20024;-79
2021/04/01 08:48:38;;;;;;;127.55;61.15;;;13.10;99.90;;;;;;5000902;28;20089;-79
2021/04/01 08:51:07;;;;;;;131.55;63.20;;;13.20;99.90;;;;;;5035000;28;20068;-79
2021/04/01 08:53:48;;;;;;;140.70;68.47;;;13.30;99.90;;;;;;5048371;28;20029;-79
2021/04/01 08:56:49;;;;;;;136.52;64.63;;;13.40;99.90;;;;;;5032051;28;20029;-79
2021/04/01 08:59:26;;;;;;;133.65;63.67;;;13.30;99.90;;;;;;5009375;28;20064;-79
2021/04/01 09:01:56;;;;;;;127.20;61.22;;;13.40;99.90;;;;;;5031839;28;20088;-79
2021/04/01 09:04:30;;;;;;;116.43;56.33;;;13.50;99.90;;;;;;5072648;28;20084;-79
2021/04/01 09:07:02;;;;;;;124.25;60.88;;;14.00;99.90;;;;;;5086571;28;20088;-79
2021/04/01 09:09:33;;;;;;;104.93;50.58;;;14.20;99.90;;;;;;5052044;28;20530;-79
2021/04/01 09:12:13;;;;;;;111.50;52.97;;;14.60;99.90;;;;;;5086440;28;20036;-79
2021/04/01 09:14:46;;;;;;;123.07;57.90;;;14.40;99.90;;;;;;5051789;28;20025;-79
2021/04/01 09:17:16;;;;;;;112.65;55.85;;;14.20;99.90;;;;;;5068291;28;20096;-79
2021/04/01 09:19:44;;;;;;;123.38;59.58;;;14.40;99.90;;;;;;5068343;28;20464;-79
2021/04/01 09:22:22;;;;;;;114.88;55.97;;;14.20;99.90;;;;;;5086088;28;20024;-79
2021/04/01 09:25:06;;;;;;;117.15;57.63;;;14.50;99.90;;;;;;5068052;28;20032;-79
2021/04/01 09:27:53;;;;;;;115.97;56.55;;;14.30;99.90;;;;;;5068208;28;20063;-79
2021/04/01 09:30:23;;;;;;;119.63;58.40;;;14.40;99.90;;;;;;5051531;28;20120;-79
2021/04/01 09:32:53;;;;;;;114.07;55.38;;;14.20;99.90;;;;;;5068067;28;20063;-79
2021/04/01 09:35:19;;;;;;;;;;;14.20;99.90;;;;;;5068779;28;20065;-79
2021/04/01 09:37:53;;;;;;;117.05;61.72;;;14.20;99.90;;;;;;5051483;28;19908;-79
2021/04/01 09:40:26;;;;;;;115.55;57.03;;;14.00;99.90;;;;;;5067936;28;20032;-79
2021/04/01 09:42:53;;;;;;;111.40;57.35;;;14.10;99.90;;;;;;5051099;28;20032;-79
2021/04/01 09:45:29;;;;;;;110.65;58.55;;;13.70;99.90;;;;;;5067708;28;20041;-79
2021/04/01 09:48:00;;;;;;;90.80;50.95;;;14.00;99.90;;;;;;5085728;28;20036;-79
2021/04/01 09:50:30;;;;;;;109.05;58.42;;;14.10;99.90;;;;;;5049980;28;20040;-79
2021/04/01 09:52:57;;;;;;;98.53;54.10;;;13.70;99.90;;;;;;5047553;28;20121;-79
2021/04/01 09:55:23;;;;;;;104.43;56.22;;;14.00;99.90;;;;;;5031112;28;20033;-79
2021/04/01 09:57:55;;;;;;;103.97;58.47;;;14.10;99.90;;;;;;5047741;28;20043;-79
2021/04/01 10:03:05;;;;;;;99.68;53.92;;;14.20;99.90;;;;;;5065300;28;20052;-78
2021/04/01 10:05:51;;;;;;;90.38;49.45;;;14.00;99.90;;;;;;5062568;28;20048;-79
2021/04/01 10:08:25;;;;;;;95.30;52.00;;;13.90;99.90;;;;;;4967870;28;20043;-79
2021/04/01 10:10:55;;;;;;;80.43;43.95;;;14.00;99.90;;;;;;4984165;28;20047;-79
2021/04/01 10:13:23;;;;;;;80.20;45.58;;;14.30;99.90;;;;;;4984886;28;20107;-79
2021/04/01 10:15:50;;;;;;;86.07;45.67;;;14.20;99.90;;;;;;4984008;28;20066;-78
2021/04/01 10:18:24;;;;;;;75.93;42.58;;;14.20;99.90;;;;;;4967671;28;20198;-79
2021/04/01 10:20:59;;;;;;;77.07;39.50;;;14.00;99.90;;;;;;4967763;28;20054;-79
2021/04/01 10:23:24;;;;;;;70.53;36.58;;;13.90;99.90;;;;;;4983537;28;20049;-79
2021/04/01 10:25:54;;;;;;;53.97;29.27;;;14.20;99.90;;;;;;4967427;28;20086;-79
2021/04/01 10:28:31;;;;;;;55.67;29.38;;;14.80;99.90;;;;;;4983735;28;20035;-79
2021/04/01 10:30:58;;;;;;;50.58;26.48;;;14.60;99.90;;;;;;4983790;28;20047;-79
2021/04/01 10:33:48;;;;;;;51.85;27.90;;;15.20;99.90;;;;;;4983398;28;20039;-78
2021/04/01 10:36:16;;;;;;;51.10;26.77;;;14.60;99.90;;;;;;4983804;28;20211;-79
2021/04/01 10:38:43;;;;;;;49.40;25.45;;;14.90;99.90;;;;;;4983700;28;20053;-79
2021/04/01 10:41:18;;;;;;;44.72;22.02;;;15.10;99.90;;;;;;4967311;28;20069;-79
2021/04/01 10:43:44;;;;;;;30.83;16.92;;;15.00;99.90;;;;;;4983803;28;20070;-79
2021/04/01 10:46:19;;;;;;;31.10;14.85;;;15.30;99.90;;;;;;5068335;28;20056;-79
2021/04/01 10:48:54;;;;;;;24.90;11.07;;;15.60;99.90;;;;;;5050212;28;20028;-79
2021/04/01 10:51:22;;;;;;;18.73;9.73;;;15.20;99.90;;;;;;5046745;28;20029;-79
2021/04/01 10:53:48;;;;;;;17.35;7.88;;;15.00;99.90;;;;;;5046697;28;20323;-79
2021/04/01 10:56:15;;;;;;;19.98;7.75;;;15.00;99.90;;;;;;5045988;28;20031;-78
2021/04/01 10:58:48;;;;;;;14.18;6.18;;;15.30;99.90;;;;;;5046389;28;20128;-79
2021/04/01 11:01:14;;;;;;;13.15;5.93;;;15.00;99.90;;;;;;5050729;28;20132;-79
2021/04/01 11:03:44;;;;;;;13.57;4.70;;;15.10;99.90;;;;;;5030322;28;20091;-78
2021/04/01 11:06:12;;;;;;;13.25;4.82;;;15.60;99.90;;;;;;5084303;28;20066;-79
2021/04/01 11:08:47;;;;;;;15.73;5.50;;;15.70;99.90;;;;;;5049865;28;20033;-79
2021/04/01 11:11:13;;;;;;;12.38;4.82;;;15.20;99.90;;;;;;5084480;28;20035;-78
2021/04/01 11:13:45;;;;;;;13.35;4.40;;;15.40;99.90;;;;;;5066418;28;20060;-79
2021/04/01 11:16:14;;;;;;;13.32;5.28;;;15.70;99.90;;;;;;5068104;28;20043;-79
2021/04/01 11:18:46;;;;;;;11.10;4.50;;;15.80;99.90;;;;;;5070308;28;20067;-79
2021/04/01 11:21:13;;;;;;;9.45;3.75;;;15.50;99.90;;;;;;5053573;28;20145;-79
2021/04/01 11:23:39;;;;;;;11.60;3.63;;;15.40;99.90;;;;;;5070322;28;20032;-78
2021/04/01 11:26:05;;;;;;;9.15;2.58;;;15.40;99.90;;;;;;5070156;28;20043;-79
2021/04/01 11:28:49;;;;;;;7.88;2.58;;;15.70;99.90;;;;;;5053623;28;20029;-79
2021/04/01 11:31:23;;;;;;;6.55;2.08;;;16.00;99.90;;;;;;5070202;28;20032;-79
2021/04/01 11:33:51;;;;;;;8.15;1.08;;;15.80;99.90;;;;;;5065745;28;20032;-79
2021/04/01 11:36:21;;;;;;;7.35;1.67;;;16.30;99.90;;;;;;5056452;28;20099;-79
2021/04/01 11:38:49;;;;;;;5.30;1.15;;;15.70;99.90;;;;;;5051066;28;20040;-79
2021/04/01 11:41:20;;;;;;;8.02;1.45;;;15.60;99.90;;;;;;5057307;28;20043;-79
2021/04/01 11:43:50;;;;;;;7.30;1.23;;;15.80;99.90;;;;;;5045531;28;20033;-79
2021/04/01 11:46:27;;;;;;;7.63;1.20;;;15.70;99.90;;;;;;5048955;28;20051;-79
2021/04/01 11:48:55;;;;;;;5.57;0.70;;;15.80;99.90;;;;;;5061874;28;20032;-79
2021/04/01 11:51:27;;;;;;;2.83;0.60;;;16.20;99.90;;;;;;5069310;28;20063;-80
2021/04/01 11:53:53;;;;;;;4.25;0.65;;;16.60;99.90;;;;;;5069553;28;20064;-78
2021/04/01 11:56:20;;;;;;;9.20;0.70;;;16.50;99.90;;;;;;5048426;28;20036;-80
2021/04/01 11:58:46;;;;;;;5.05;0.60;;;15.90;99.90;;;;;;5069215;28;20016;-79
2021/04/01 12:01:22;;;;;;;5.97;0.70;;;16.10;99.90;;;;;;5052332;28;20037;-79
2021/04/01 12:06:19;;;;;;;5.38;0.50;;;16.10;99.90;;;;;;5054398;28;20051;-78
2021/04/01 12:08:45;;;;;;;5.45;0.60;;;15.90;99.90;;;;;;5062091;28;20039;-79
2021/04/01 12:11:11;;;;;;;10.55;0.77;;;15.90;99.90;;;;;;5054046;28;20036;-79
2021/04/01 12:13:36;;;;;;;9.27;0.70;;;15.60;99.90;;;;;;5067529;28;20044;-79
2021/04/01 12:16:02;;;;;;;6.22;0.68;;;15.70;99.90;;;;;;5038815;28;20059;-79
2021/04/01 12:18:40;;;;;;;7.75;1.45;;;15.90;99.90;;;;;;5056602;28;20452;-79
2021/04/01 12:21:07;;;;;;;8.32;0.82;;;15.80;99.90;;;;;;5050537;28;20036;-79
2021/04/01 12:23:45;;;;;;;4.10;0.60;;;15.60;99.90;;;;;;5069232;28;20036;-79
2021/04/01 12:26:11;;;;;;;5.63;0.50;;;16.00;99.90;;;;;;5086902;28;20123;-80
2021/04/01 12:28:36;;;;;;;6.20;0.57;;;16.30;99.90;;;;;;5051696;28;20139;-80
2021/04/01 12:31:02;;;;;;;8.98;1.10;;;16.30;99.90;;;;;;5051884;28;20068;-80
2021/04/01 12:33:29;;;;;;;6.18;0.60;;;15.80;99.90;;;;;;5052338;28;20085;-79
2021/04/01 12:36:00;;;;;;;5.38;0.50;;;15.90;99.90;;;;;;5086612;28;20036;-79
2021/04/01 12:38:34;;;;;;;6.70;0.50;;;15.30;99.90;;;;;;5052184;28;20031;-79
2021/04/01 12:41:03;;;;;;;3.53;0.55;;;15.30;99.90;;;;;;5052095;28;20036;-79
2021/04/01 12:43:34;;;;;;;3.20;0.50;;;15.40;99.90;;;;;;5068678;28;20025;-80
2021/04/01 12:49:04;;;;;;;4.32;0.70;;;15.60;99.90;;;;;;5035490;28;20032;-80
2021/04/01 12:51:44;;;;;;;4.60;0.50;;;15.70;99.90;;;;;;5058978;28;20025;-80
2021/04/01 12:54:18;;;;;;;;;;;15.60;99.90;;;;;;5048993;28;20037;-79
2021/04/01 12:56:51;;;;;;;4.95;0.55;;;16.00;99.90;;;;;;5065157;28;19909;-80
2021/04/01 12:59:22;;;;;;;5.13;0.85;;;15.50;99.90;;;;;;5031829;28;20037;-79
2021/04/01 13:01:52;;;;;;;2.75;0.40;;;15.70;99.90;;;;;;5048146;28;20053;-80
2021/04/01 13:04:21;;;;;;;2.05;0.47;;;15.70;99.90;;;;;;5050970;28;20098;-79
2021/04/01 13:06:59;;;;;;;5.03;0.70;;;15.40;99.90;;;;;;5031558;28;20045;-79
2021/04/01 13:09:40;;;;;;;5.25;0.40;;;15.00;99.90;;;;;;5031950;28;20033;-80
2021/04/01 13:12:17;;;;;;;3.55;0.52;;;15.30;99.90;;;;;;5031575;28;20036;-81
2021/04/01 13:14:44;;;;;;;3.35;0.63;;;15.20;99.90;;;;;;5048248;28;20033;-79
2021/04/01 13:17:10;;;;;;;7.85;0.50;;;15.70;99.90;;;;;;5048262;28;20077;-79
2021/04/01 13:19:37;;;;;;;2.20;0.43;;;15.20;99.90;;;;;;5048290;28;20043;-80
2021/04/01 13:27:13;;;;;;;4.45;0.50;;;15.00;99.90;;;;;;5065811;28;20051;-78
2021/04/01 13:29:41;;;;;;;2.17;0.50;;;15.80;99.90;;;;;;5047888;28;20029;-80
2021/04/01 13:32:23;;;;;;;7.30;0.40;;;16.00;99.90;;;;;;5047680;28;20036;-80
2021/04/01 13:35:14;;;;;;;4.40;0.50;;;15.80;99.90;;;;;;5031273;28;20048;-80
2021/04/01 13:37:41;;;;;;;5.00;0.60;;;15.70;99.90;;;;;;5047303;28;20445;-79
2021/04/01 13:40:15;;;;;;;3.30;0.47;;;15.40;99.90;;;;;;5046931;28;20404;-78
2021/04/01 13:42:48;;;;;;;3.45;0.40;;;15.40;99.90;;;;;;5064230;28;20512;-79
2021/04/01 13:45:17;;;;;;;5.10;0.80;;;15.50;99.90;;;;;;5031174;28;20511;-79
2021/04/01 13:47:45;;;;;;;5.30;0.50;;;15.20;99.90;;;;;;5031031;28;20053;-79
2021/04/01 13:50:15;;;;;;;4.68;0.52;;;15.40;99.90;;;;;;5047526;28;20029;-79
2021/04/01 14:04:01;;;;;;;5.82;0.40;;;15.60;99.90;;;;;;5084873;28;20074;-79
2021/04/01 14:11:28;;;;;;;5.13;0.50;;;15.80;99.90;;;;;;5047074;28;20053;-80
2021/04/01 14:13:53;;;;;;;3.17;0.30;;;15.50;99.90;;;;;;5047330;28;20275;-78
2021/04/01 14:16:19;;;;;;;2.42;0.20;;;15.10;99.90;;;;;;5047186;28;20028;-79
2021/04/01 14:18:48;;;;;;;10.25;0.65;;;15.50;99.90;;;;;;5047200;28;20040;-78
2021/04/01 14:21:18;;;;;;;5.10;0.52;;;15.90;99.90;;;;;;5046901;28;20033;-79
2021/04/01 14:23:44;;;;;;;3.15;0.30;;;15.60;99.90;;;;;;5047248;28;20029;-80
2021/04/01 14:28:36;;;;;;;8.93;0.40;;;15.70;99.90;;;;;;5046979;28;20063;-79
2021/04/01 14:31:03;;;;;;;6.32;0.40;;;15.70;99.90;;;;;;5046786;28;20029;-79
2021/04/01 14:33:28;;;;;;;3.55;0.50;;;15.40;99.90;;;;;;5030217;28;20036;-79
2021/04/01 14:35:57;;;;;;;3.80;0.25;;;15.70;99.90;;;;;;5046823;28;20083;-79
2021/04/01 14:38:23;;;;;;;2.33;0.27;;;15.40;99.90;;;;;;5064281;28;20075;-78
2021/04/01 14:40:59;;;;;;;5.15;0.30;;;15.40;99.90;;;;;;5047810;28;20037;-79